sensor_id;sensor_type;location;lat;lon;timestamp;P1;durP1;ratioP1;P2;durP2;ratioP2
21816;SDS011;13247;47.504;7.382;2023-04-21T00:00:06;6.20;;;4.82;;
21816;SDS011;13247;47.504;7.382;2023-04-21T00:02:52;7.05;;;4.72;;
21816;SDS011;13247;47.504;7.382;2023-04-21T00:05:37;6.85;;;4.60;;
21816;SDS011;13247;47.504;7.382;2023-04-21T00:08:25;8.48;;;4.50;;
21816;SDS011;13247;47.504;7.382;2023-04-21T00:11:10;11.18;;;6.68;;
21816;SDS011;13247;47.504;7.382;2023-04-21T00:13:55;13.70;;;8.35;;
21816;SDS011;13247;47.504;7.382;2023-04-21T00:16:39;13.18;;;7.13;;
21816;SDS011;13247;47.504;7.382;2023-04-21T00:19:24;9.93;;;6.90;;
21816;SDS011;13247;47.504;7.382;2023-04-21T00:22:09;7.35;;;5.35;;
21816;SDS011;13247;47.504;7.382;2023-04-21T00:24:57;7.95;;;5.20;;
21816;SDS011;13247;47.504;7.382;2023-04-21T00:27:41;6.40;;;4.65;;
21816;SDS011;13247;47.504;7.382;2023-04-21T00:30:26;7.22;;;4.25;;
21816;SDS011;13247;47.504;7.382;2023-04-21T00:33:11;7.40;;;4.60;;
21816;SDS011;13247;47.504;7.382;2023-04-21T00:35:56;6.53;;;4.30;;
21816;SDS011;13247;47.504;7.382;2023-04-21T00:38:42;8.27;;;4.72;;
21816;SDS011;13247;47.504;7.382;2023-04-21T00:41:29;7.30;;;4.88;;
21816;SDS011;13247;47.504;7.382;2023-04-21T00:44:16;7.25;;;4.75;;
21816;SDS011;13247;47.504;7.382;2023-04-21T00:47:00;8.82;;;4.97;;
21816;SDS011;13247;47.504;7.382;2023-04-21T00:49:45;5.47;;;3.42;;
21816;SDS011;13247;47.504;7.382;2023-04-21T00:52:30;5.78;;;3.70;;
21816;SDS011;13247;47.504;7.382;2023-04-21T00:55:16;13.75;;;4.13;;
21816;SDS011;13247;47.504;7.382;2023-04-21T00:58:01;6.03;;;4.20;;
21816;SDS011;13247;47.504;7.382;2023-04-21T01:00:46;4.32;;;3.50;;
21816;SDS011;13247;47.504;7.382;2023-04-21T01:03:31;5.53;;;3.80;;
21816;SDS011;13247;47.504;7.382;2023-04-21T01:06:16;6.95;;;4.43;;
21816;SDS011;13247;47.504;7.382;2023-04-21T01:09:02;9.45;;;4.22;;
21816;SDS011;13247;47.504;7.382;2023-04-21T01:14:54;6.57;;;4.13;;
21816;SDS011;13247;47.504;7.382;2023-04-21T01:17:39;7.15;;;4.32;;
21816;SDS011;13247;47.504;7.382;2023-04-21T01:20:24;5.93;;;4.40;;
21816;SDS011;13247;47.504;7.382;2023-04-21T01:23:09;5.70;;;4.15;;
21816;SDS011;13247;47.504;7.382;2023-04-21T01:25:54;8.05;;;4.57;;
21816;SDS011;13247;47.504;7.382;2023-04-21T01:28:39;8.13;;;4.43;;
21816;SDS011;13247;47.504;7.382;2023-04-21T01:31:23;6.65;;;4.22;;
21816;SDS011;13247;47.504;7.382;2023-04-21T01:34:09;8.60;;;4.60;;
21816;SDS011;13247;47.504;7.382;2023-04-21T01:36:54;7.43;;;4.30;;
21816;SDS011;13247;47.504;7.382;2023-04-21T01:39:39;5.80;;;4.00;;
21816;SDS011;13247;47.504;7.382;2023-04-21T01:42:27;7.65;;;4.40;;
21816;SDS011;13247;47.504;7.382;2023-04-21T01:45:12;6.47;;;4.72;;
21816;SDS011;13247;47.504;7.382;2023-04-21T01:47:57;6.60;;;4.28;;
21816;SDS011;13247;47.504;7.382;2023-04-21T01:50:42;6.72;;;4.22;;
21816;SDS011;13247;47.504;7.382;2023-04-21T01:53:26;7.95;;;4.45;;
21816;SDS011;13247;47.504;7.382;2023-04-21T01:56:15;13.15;;;5.05;;
21816;SDS011;13247;47.504;7.382;2023-04-21T01:59:00;5.13;;;3.88;;
21816;SDS011;13247;47.504;7.382;2023-04-21T02:01:45;6.47;;;4.22;;
21816;SDS011;13247;47.504;7.382;2023-04-21T02:04:29;8.20;;;4.22;;
21816;SDS011;13247;47.504;7.382;2023-04-21T02:07:14;5.93;;;3.95;;
21816;SDS011;13247;47.504;7.382;2023-04-21T02:09:59;5.90;;;3.80;;
21816;SDS011;13247;47.504;7.382;2023-04-21T02:12:43;5.75;;;3.75;;
21816;SDS011;13247;47.504;7.382;2023-04-21T02:15:28;6.38;;;3.83;;
21816;SDS011;13247;47.504;7.382;2023-04-21T02:18:12;5.88;;;3.72;;
21816;SDS011;13247;47.504;7.382;2023-04-21T02:20:57;5.35;;;3.65;;
21816;SDS011;13247;47.504;7.382;2023-04-21T02:23:41;7.78;;;4.00;;
21816;SDS011;13247;47.504;7.382;2023-04-21T02:26:26;7.65;;;4.10;;
21816;SDS011;13247;47.504;7.382;2023-04-21T02:29:11;7.25;;;4.32;;
21816;SDS011;13247;47.504;7.382;2023-04-21T02:31:56;6.65;;;4.43;;
21816;SDS011;13247;47.504;7.382;2023-04-21T02:34:41;8.50;;;4.60;;
21816;SDS011;13247;47.504;7.382;2023-04-21T02:37:26;5.70;;;3.63;;
21816;SDS011;13247;47.504;7.382;2023-04-21T02:40:10;6.88;;;4.15;;
21816;SDS011;13247;47.504;7.382;2023-04-21T02:42:55;6.05;;;4.05;;
21816;SDS011;13247;47.504;7.382;2023-04-21T02:45:40;5.57;;;3.80;;
21816;SDS011;13247;47.504;7.382;2023-04-21T02:48:25;8.23;;;4.18;;
21816;SDS011;13247;47.504;7.382;2023-04-21T02:51:11;5.50;;;3.80;;
21816;SDS011;13247;47.504;7.382;2023-04-21T02:53:57;4.28;;;3.78;;
21816;SDS011;13247;47.504;7.382;2023-04-21T02:56:41;6.00;;;3.35;;
21816;SDS011;13247;47.504;7.382;2023-04-21T02:59:26;5.68;;;3.60;;
21816;SDS011;13247;47.504;7.382;2023-04-21T03:02:11;5.32;;;3.67;;
21816;SDS011;13247;47.504;7.382;2023-04-21T03:04:55;4.88;;;3.33;;
21816;SDS011;13247;47.504;7.382;2023-04-21T03:07:40;6.57;;;3.83;;
21816;SDS011;13247;47.504;7.382;2023-04-21T03:10:27;6.15;;;3.60;;
21816;SDS011;13247;47.504;7.382;2023-04-21T03:13:11;8.13;;;3.47;;
21816;SDS011;13247;47.504;7.382;2023-04-21T03:15:56;6.47;;;3.60;;
21816;SDS011;13247;47.504;7.382;2023-04-21T03:18:40;6.30;;;3.88;;
21816;SDS011;13247;47.504;7.382;2023-04-21T03:21:25;5.40;;;3.85;;
21816;SDS011;13247;47.504;7.382;2023-04-21T03:24:09;6.13;;;4.18;;
21816;SDS011;13247;47.504;7.382;2023-04-21T03:26:54;8.82;;;4.03;;
21816;SDS011;13247;47.504;7.382;2023-04-21T03:29:39;7.13;;;4.10;;
21816;SDS011;13247;47.504;7.382;2023-04-21T03:32:25;8.32;;;4.95;;
21816;SDS011;13247;47.504;7.382;2023-04-21T03:35:09;8.18;;;4.20;;
21816;SDS011;13247;47.504;7.382;2023-04-21T03:37:54;7.22;;;4.28;;
21816;SDS011;13247;47.504;7.382;2023-04-21T03:40:38;6.90;;;3.92;;
21816;SDS011;13247;47.504;7.382;2023-04-21T03:43:23;6.22;;;3.95;;
21816;SDS011;13247;47.504;7.382;2023-04-21T03:46:08;6.35;;;4.35;;
21816;SDS011;13247;47.504;7.382;2023-04-21T03:49:04;6.60;;;4.18;;
21816;SDS011;13247;47.504;7.382;2023-04-21T03:51:48;6.40;;;4.05;;
21816;SDS011;13247;47.504;7.382;2023-04-21T03:54:33;7.75;;;4.72;;
21816;SDS011;13247;47.504;7.382;2023-04-21T03:57:17;9.95;;;4.95;;
21816;SDS011;13247;47.504;7.382;2023-04-21T04:00:02;9.55;;;5.35;;
21816;SDS011;13247;47.504;7.382;2023-04-21T04:02:47;11.32;;;5.75;;
21816;SDS011;13247;47.504;7.382;2023-04-21T04:05:33;11.15;;;4.70;;
21816;SDS011;13247;47.504;7.382;2023-04-21T04:08:19;8.07;;;4.95;;
21816;SDS011;13247;47.504;7.382;2023-04-21T04:11:04;6.40;;;4.07;;
21816;SDS011;13247;47.504;7.382;2023-04-21T04:13:49;8.00;;;4.50;;
21816;SDS011;13247;47.504;7.382;2023-04-21T04:16:33;7.90;;;4.55;;
21816;SDS011;13247;47.504;7.382;2023-04-21T04:19:18;6.93;;;4.22;;
21816;SDS011;13247;47.504;7.382;2023-04-21T04:22:03;5.20;;;3.80;;
21816;SDS011;13247;47.504;7.382;2023-04-21T04:24:47;8.13;;;5.10;;
21816;SDS011;13247;47.504;7.382;2023-04-21T04:27:32;7.75;;;4.68;;
21816;SDS011;13247;47.504;7.382;2023-04-21T04:30:18;5.93;;;4.30;;
21816;SDS011;13247;47.504;7.382;2023-04-21T04:33:05;7.32;;;4.20;;
21816;SDS011;13247;47.504;7.382;2023-04-21T04:35:52;6.93;;;4.47;;
21816;SDS011;13247;47.504;7.382;2023-04-21T04:38:37;7.40;;;4.57;;
21816;SDS011;13247;47.504;7.382;2023-04-21T04:41:23;8.02;;;4.88;;
21816;SDS011;13247;47.504;7.382;2023-04-21T04:44:07;8.52;;;5.70;;
21816;SDS011;13247;47.504;7.382;2023-04-21T04:46:53;13.60;;;7.60;;
21816;SDS011;13247;47.504;7.382;2023-04-21T04:49:39;10.32;;;5.78;;
21816;SDS011;13247;47.504;7.382;2023-04-21T04:52:23;9.73;;;5.70;;
21816;SDS011;13247;47.504;7.382;2023-04-21T04:55:08;9.27;;;5.43;;
21816;SDS011;13247;47.504;7.382;2023-04-21T04:57:53;9.85;;;5.30;;
21816;SDS011;13247;47.504;7.382;2023-04-21T05:00:37;8.75;;;5.03;;
21816;SDS011;13247;47.504;7.382;2023-04-21T05:03:23;8.10;;;5.30;;
21816;SDS011;13247;47.504;7.382;2023-04-21T05:06:07;8.93;;;5.22;;
21816;SDS011;13247;47.504;7.382;2023-04-21T05:08:52;8.18;;;4.80;;
21816;SDS011;13247;47.504;7.382;2023-04-21T05:11:37;12.45;;;5.85;;
21816;SDS011;13247;47.504;7.382;2023-04-21T05:14:22;7.15;;;4.93;;
21816;SDS011;13247;47.504;7.382;2023-04-21T05:17:06;11.27;;;6.15;;
21816;SDS011;13247;47.504;7.382;2023-04-21T05:19:51;15.85;;;8.75;;
21816;SDS011;13247;47.504;7.382;2023-04-21T05:22:39;12.60;;;7.43;;
21816;SDS011;13247;47.504;7.382;2023-04-21T05:25:24;15.45;;;6.95;;
21816;SDS011;13247;47.504;7.382;2023-04-21T05:28:08;12.57;;;6.53;;
21816;SDS011;13247;47.504;7.382;2023-04-21T05:30:54;13.45;;;7.50;;
21816;SDS011;13247;47.504;7.382;2023-04-21T05:33:38;14.68;;;7.88;;
21816;SDS011;13247;47.504;7.382;2023-04-21T05:36:23;14.50;;;8.23;;
21816;SDS011;13247;47.504;7.382;2023-04-21T05:39:08;15.20;;;8.43;;
21816;SDS011;13247;47.504;7.382;2023-04-21T05:41:53;16.90;;;9.13;;
21816;SDS011;13247;47.504;7.382;2023-04-21T05:44:38;17.70;;;9.65;;
21816;SDS011;13247;47.504;7.382;2023-04-21T05:47:23;15.80;;;8.70;;
21816;SDS011;13247;47.504;7.382;2023-04-21T05:50:07;14.57;;;8.57;;
21816;SDS011;13247;47.504;7.382;2023-04-21T05:52:53;17.63;;;8.63;;
21816;SDS011;13247;47.504;7.382;2023-04-21T05:55:37;16.40;;;8.18;;
21816;SDS011;13247;47.504;7.382;2023-04-21T05:58:21;14.82;;;7.13;;
21816;SDS011;13247;47.504;7.382;2023-04-21T06:01:07;15.50;;;8.65;;
21816;SDS011;13247;47.504;7.382;2023-04-21T06:03:52;18.23;;;9.43;;
21816;SDS011;13247;47.504;7.382;2023-04-21T06:06:36;15.75;;;8.82;;
21816;SDS011;13247;47.504;7.382;2023-04-21T06:09:21;19.38;;;9.98;;
21816;SDS011;13247;47.504;7.382;2023-04-21T06:12:05;18.08;;;8.68;;
21816;SDS011;13247;47.504;7.382;2023-04-21T06:14:50;19.17;;;9.43;;
21816;SDS011;13247;47.504;7.382;2023-04-21T06:17:39;23.00;;;10.07;;
21816;SDS011;13247;47.504;7.382;2023-04-21T06:20:24;18.27;;;9.18;;
21816;SDS011;13247;47.504;7.382;2023-04-21T06:23:09;17.17;;;8.38;;
21816;SDS011;13247;47.504;7.382;2023-04-21T06:25:57;14.02;;;8.18;;
21816;SDS011;13247;47.504;7.382;2023-04-21T06:28:47;20.70;;;14.43;;
21816;SDS011;13247;47.504;7.382;2023-04-21T06:31:32;17.50;;;8.90;;
21816;SDS011;13247;47.504;7.382;2023-04-21T06:34:16;16.85;;;9.25;;
21816;SDS011;13247;47.504;7.382;2023-04-21T06:37:02;15.48;;;8.20;;
21816;SDS011;13247;47.504;7.382;2023-04-21T06:39:50;14.85;;;8.40;;
21816;SDS011;13247;47.504;7.382;2023-04-21T06:42:35;14.68;;;8.10;;
21816;SDS011;13247;47.504;7.382;2023-04-21T06:45:20;15.45;;;7.40;;
21816;SDS011;13247;47.504;7.382;2023-04-21T06:48:04;14.05;;;7.38;;
21816;SDS011;13247;47.504;7.382;2023-04-21T06:50:52;10.68;;;6.30;;
21816;SDS011;13247;47.504;7.382;2023-04-21T06:53:37;9.07;;;5.47;;
21816;SDS011;13247;47.504;7.382;2023-04-21T06:56:21;9.80;;;5.68;;
21816;SDS011;13247;47.504;7.382;2023-04-21T06:59:07;11.55;;;6.00;;
21816;SDS011;13247;47.504;7.382;2023-04-21T07:01:52;9.68;;;5.63;;
21816;SDS011;13247;47.504;7.382;2023-04-21T07:04:37;11.73;;;6.05;;
21816;SDS011;13247;47.504;7.382;2023-04-21T07:07:21;8.60;;;5.07;;
21816;SDS011;13247;47.504;7.382;2023-04-21T07:10:06;8.57;;;4.93;;
21816;SDS011;13247;47.504;7.382;2023-04-21T07:12:51;7.82;;;4.60;;
21816;SDS011;13247;47.504;7.382;2023-04-21T07:15:36;7.38;;;4.97;;
21816;SDS011;13247;47.504;7.382;2023-04-21T07:18:20;8.43;;;4.43;;
21816;SDS011;13247;47.504;7.382;2023-04-21T07:21:05;7.68;;;5.13;;
21816;SDS011;13247;47.504;7.382;2023-04-21T07:23:50;7.72;;;4.72;;
21816;SDS011;13247;47.504;7.382;2023-04-21T07:26:35;9.02;;;5.25;;
21816;SDS011;13247;47.504;7.382;2023-04-21T07:29:19;8.00;;;4.88;;
21816;SDS011;13247;47.504;7.382;2023-04-21T07:32:04;9.25;;;5.20;;
21816;SDS011;13247;47.504;7.382;2023-04-21T07:34:48;8.45;;;4.43;;
21816;SDS011;13247;47.504;7.382;2023-04-21T07:37:33;7.22;;;4.53;;
21816;SDS011;13247;47.504;7.382;2023-04-21T07:40:17;11.05;;;5.10;;
21816;SDS011;13247;47.504;7.382;2023-04-21T07:43:02;8.25;;;4.32;;
21816;SDS011;13247;47.504;7.382;2023-04-21T07:45:47;7.70;;;4.65;;
21816;SDS011;13247;47.504;7.382;2023-04-21T07:48:31;8.13;;;4.47;;
21816;SDS011;13247;47.504;7.382;2023-04-21T07:51:16;5.18;;;3.40;;
21816;SDS011;13247;47.504;7.382;2023-04-21T07:54:01;8.02;;;4.03;;
21816;SDS011;13247;47.504;7.382;2023-04-21T07:56:45;4.85;;;3.10;;
21816;SDS011;13247;47.504;7.382;2023-04-21T07:59:30;4.93;;;3.40;;
21816;SDS011;13247;47.504;7.382;2023-04-21T08:02:15;6.05;;;3.50;;
21816;SDS011;13247;47.504;7.382;2023-04-21T08:05:00;7.03;;;3.25;;
21816;SDS011;13247;47.504;7.382;2023-04-21T08:07:44;5.65;;;3.30;;
21816;SDS011;13247;47.504;7.382;2023-04-21T08:10:30;4.85;;;2.97;;
21816;SDS011;13247;47.504;7.382;2023-04-21T08:13:14;5.97;;;3.15;;
21816;SDS011;13247;47.504;7.382;2023-04-21T08:15:59;6.25;;;3.60;;
21816;SDS011;13247;47.504;7.382;2023-04-21T08:18:44;5.00;;;3.30;;
21816;SDS011;13247;47.504;7.382;2023-04-21T08:21:28;5.90;;;3.22;;
21816;SDS011;13247;47.504;7.382;2023-04-21T08:24:14;5.60;;;3.47;;
21816;SDS011;13247;47.504;7.382;2023-04-21T08:26:59;5.78;;;3.75;;
21816;SDS011;13247;47.504;7.382;2023-04-21T08:29:44;3.55;;;2.60;;
21816;SDS011;13247;47.504;7.382;2023-04-21T08:32:29;6.03;;;3.53;;
21816;SDS011;13247;47.504;7.382;2023-04-21T08:35:14;4.85;;;3.20;;
21816;SDS011;13247;47.504;7.382;2023-04-21T08:37:58;3.30;;;2.63;;
21816;SDS011;13247;47.504;7.382;2023-04-21T08:40:43;3.03;;;2.50;;
21816;SDS011;13247;47.504;7.382;2023-04-21T08:43:28;3.85;;;2.63;;
21816;SDS011;13247;47.504;7.382;2023-04-21T08:46:12;3.38;;;2.20;;
21816;SDS011;13247;47.504;7.382;2023-04-21T08:48:58;3.70;;;2.70;;
21816;SDS011;13247;47.504;7.382;2023-04-21T08:51:44;3.90;;;2.42;;
21816;SDS011;13247;47.504;7.382;2023-04-21T08:54:30;15.05;;;6.55;;
21816;SDS011;13247;47.504;7.382;2023-04-21T08:57:16;3.20;;;2.80;;
21816;SDS011;13247;47.504;7.382;2023-04-21T09:00:01;4.93;;;2.92;;
21816;SDS011;13247;47.504;7.382;2023-04-21T09:02:53;4.47;;;3.15;;
21816;SDS011;13247;47.504;7.382;2023-04-21T09:08:24;5.22;;;2.85;;
21816;SDS011;13247;47.504;7.382;2023-04-21T09:11:13;5.90;;;4.00;;
21816;SDS011;13247;47.504;7.382;2023-04-21T09:13:57;5.18;;;3.38;;
21816;SDS011;13247;47.504;7.382;2023-04-21T09:16:42;4.50;;;2.95;;
21816;SDS011;13247;47.504;7.382;2023-04-21T09:19:27;5.68;;;3.22;;
21816;SDS011;13247;47.504;7.382;2023-04-21T09:22:13;6.50;;;3.15;;
21816;SDS011;13247;47.504;7.382;2023-04-21T09:24:59;5.15;;;2.83;;
21816;SDS011;13247;47.504;7.382;2023-04-21T09:27:44;4.80;;;3.15;;
21816;SDS011;13247;47.504;7.382;2023-04-21T09:30:30;5.45;;;3.22;;
21816;SDS011;13247;47.504;7.382;2023-04-21T09:33:22;7.05;;;2.58;;
21816;SDS011;13247;47.504;7.382;2023-04-21T09:36:06;4.05;;;2.92;;
21816;SDS011;13247;47.504;7.382;2023-04-21T09:41:44;4.18;;;2.95;;
21816;SDS011;13247;47.504;7.382;2023-04-21T09:44:29;4.70;;;3.03;;
21816;SDS011;13247;47.504;7.382;2023-04-21T09:47:14;7.47;;;3.55;;
21816;SDS011;13247;47.504;7.382;2023-04-21T09:49:59;5.45;;;3.40;;
21816;SDS011;13247;47.504;7.382;2023-04-21T09:52:44;5.28;;;3.22;;
21816;SDS011;13247;47.504;7.382;2023-04-21T09:55:33;5.55;;;2.97;;
21816;SDS011;13247;47.504;7.382;2023-04-21T09:58:19;5.43;;;3.22;;
21816;SDS011;13247;47.504;7.382;2023-04-21T10:01:07;4.25;;;3.20;;
21816;SDS011;13247;47.504;7.382;2023-04-21T10:03:53;4.55;;;3.10;;
21816;SDS011;13247;47.504;7.382;2023-04-21T10:06:39;4.05;;;2.83;;
21816;SDS011;13247;47.504;7.382;2023-04-21T10:09:24;4.70;;;3.28;;
21816;SDS011;13247;47.504;7.382;2023-04-21T10:12:15;7.25;;;3.78;;
21816;SDS011;13247;47.504;7.382;2023-04-21T10:15:02;3.88;;;2.95;;
21816;SDS011;13247;47.504;7.382;2023-04-21T10:17:49;5.13;;;3.13;;
21816;SDS011;13247;47.504;7.382;2023-04-21T10:20:33;3.97;;;2.95;;
21816;SDS011;13247;47.504;7.382;2023-04-21T10:23:52;3.75;;;2.97;;
21816;SDS011;13247;47.504;7.382;2023-04-21T10:26:39;4.15;;;2.85;;
21816;SDS011;13247;47.504;7.382;2023-04-21T10:29:28;4.78;;;3.33;;
21816;SDS011;13247;47.504;7.382;2023-04-21T10:32:29;4.22;;;3.08;;
21816;SDS011;13247;47.504;7.382;2023-04-21T10:35:24;5.35;;;3.13;;
21816;SDS011;13247;47.504;7.382;2023-04-21T10:38:32;4.43;;;3.15;;
21816;SDS011;13247;47.504;7.382;2023-04-21T10:41:25;9.38;;;2.95;;
21816;SDS011;13247;47.504;7.382;2023-04-21T10:44:14;5.45;;;3.88;;
21816;SDS011;13247;47.504;7.382;2023-04-21T10:46:59;5.57;;;3.10;;
21816;SDS011;13247;47.504;7.382;2023-04-21T10:49:44;5.32;;;3.80;;
21816;SDS011;13247;47.504;7.382;2023-04-21T10:52:32;7.32;;;3.50;;
21816;SDS011;13247;47.504;7.382;2023-04-21T10:55:17;4.25;;;2.92;;
21816;SDS011;13247;47.504;7.382;2023-04-21T10:58:05;5.63;;;3.65;;
21816;SDS011;13247;47.504;7.382;2023-04-21T11:00:54;4.53;;;2.60;;
21816;SDS011;13247;47.504;7.382;2023-04-21T11:03:39;6.53;;;3.70;;
21816;SDS011;13247;47.504;7.382;2023-04-21T11:06:24;4.93;;;3.38;;
21816;SDS011;13247;47.504;7.382;2023-04-21T11:09:09;6.90;;;3.33;;
21816;SDS011;13247;47.504;7.382;2023-04-21T11:11:57;4.97;;;3.42;;
21816;SDS011;13247;47.504;7.382;2023-04-21T11:14:43;5.13;;;3.30;;
21816;SDS011;13247;47.504;7.382;2023-04-21T11:17:32;5.43;;;3.30;;
21816;SDS011;13247;47.504;7.382;2023-04-21T11:20:18;4.45;;;3.10;;
21816;SDS011;13247;47.504;7.382;2023-04-21T11:23:02;10.15;;;3.50;;
21816;SDS011;13247;47.504;7.382;2023-04-21T11:25:47;4.63;;;3.30;;
21816;SDS011;13247;47.504;7.382;2023-04-21T11:28:31;4.50;;;3.30;;
21816;SDS011;13247;47.504;7.382;2023-04-21T11:31:16;4.63;;;3.30;;
21816;SDS011;13247;47.504;7.382;2023-04-21T11:34:01;5.55;;;3.53;;
21816;SDS011;13247;47.504;7.382;2023-04-21T11:36:48;11.18;;;4.15;;
21816;SDS011;13247;47.504;7.382;2023-04-21T11:39:33;4.50;;;3.10;;
21816;SDS011;13247;47.504;7.382;2023-04-21T11:42:21;5.78;;;3.70;;
21816;SDS011;13247;47.504;7.382;2023-04-21T11:45:05;4.35;;;3.38;;
21816;SDS011;13247;47.504;7.382;2023-04-21T11:47:51;5.72;;;3.42;;
21816;SDS011;13247;47.504;7.382;2023-04-21T11:50:59;5.40;;;3.47;;
21816;SDS011;13247;47.504;7.382;2023-04-21T11:53:47;5.40;;;3.70;;
21816;SDS011;13247;47.504;7.382;2023-04-21T11:56:35;4.25;;;3.50;;
21816;SDS011;13247;47.504;7.382;2023-04-21T11:59:21;8.35;;;3.90;;
21816;SDS011;13247;47.504;7.382;2023-04-21T12:02:11;6.45;;;3.78;;
21816;SDS011;13247;47.504;7.382;2023-04-21T12:05:09;6.20;;;4.03;;
21816;SDS011;13247;47.504;7.382;2023-04-21T12:07:55;4.85;;;3.53;;
21816;SDS011;13247;47.504;7.382;2023-04-21T12:10:43;5.45;;;3.53;;
21816;SDS011;13247;47.504;7.382;2023-04-21T12:13:29;4.68;;;3.25;;
21816;SDS011;13247;47.504;7.382;2023-04-21T12:16:15;5.38;;;3.65;;
21816;SDS011;13247;47.504;7.382;2023-04-21T12:19:00;3.15;;;2.65;;
21816;SDS011;13247;47.504;7.382;2023-04-21T12:21:45;4.18;;;3.00;;
21816;SDS011;13247;47.504;7.382;2023-04-21T12:24:35;7.28;;;3.80;;
21816;SDS011;13247;47.504;7.382;2023-04-21T12:27:20;4.97;;;4.28;;
21816;SDS011;13247;47.504;7.382;2023-04-21T12:30:06;7.00;;;4.15;;
21816;SDS011;13247;47.504;7.382;2023-04-21T12:32:51;4.40;;;3.33;;
21816;SDS011;13247;47.504;7.382;2023-04-21T12:35:37;6.13;;;3.22;;
21816;SDS011;13247;47.504;7.382;2023-04-21T12:38:22;4.88;;;3.22;;
21816;SDS011;13247;47.504;7.382;2023-04-21T12:41:06;5.63;;;3.28;;
21816;SDS011;13247;47.504;7.382;2023-04-21T12:43:51;5.15;;;4.22;;
21816;SDS011;13247;47.504;7.382;2023-04-21T12:46:36;6.03;;;3.58;;
21816;SDS011;13247;47.504;7.382;2023-04-21T12:49:21;9.25;;;4.93;;
21816;SDS011;13247;47.504;7.382;2023-04-21T12:52:06;6.50;;;4.43;;
21816;SDS011;13247;47.504;7.382;2023-04-21T12:54:51;8.93;;;4.35;;
21816;SDS011;13247;47.504;7.382;2023-04-21T12:57:36;9.23;;;5.85;;
21816;SDS011;13247;47.504;7.382;2023-04-21T13:00:20;5.05;;;3.58;;
21816;SDS011;13247;47.504;7.382;2023-04-21T13:03:05;6.15;;;3.78;;
21816;SDS011;13247;47.504;7.382;2023-04-21T13:05:51;5.65;;;3.67;;
21816;SDS011;13247;47.504;7.382;2023-04-21T13:08:36;8.90;;;5.65;;
21816;SDS011;13247;47.504;7.382;2023-04-21T13:11:20;6.63;;;3.97;;
21816;SDS011;13247;47.504;7.382;2023-04-21T13:14:05;7.13;;;4.97;;
21816;SDS011;13247;47.504;7.382;2023-04-21T13:16:51;5.28;;;3.97;;
21816;SDS011;13247;47.504;7.382;2023-04-21T13:19:36;7.00;;;4.30;;
21816;SDS011;13247;47.504;7.382;2023-04-21T13:22:20;10.25;;;6.00;;
21816;SDS011;13247;47.504;7.382;2023-04-21T13:25:06;5.53;;;4.13;;
21816;SDS011;13247;47.504;7.382;2023-04-21T13:27:50;5.53;;;4.10;;
21816;SDS011;13247;47.504;7.382;2023-04-21T13:30:35;6.40;;;3.67;;
21816;SDS011;13247;47.504;7.382;2023-04-21T13:33:20;7.53;;;5.28;;
21816;SDS011;13247;47.504;7.382;2023-04-21T13:36:05;4.13;;;3.25;;
21816;SDS011;13247;47.504;7.382;2023-04-21T13:38:50;5.55;;;3.15;;
21816;SDS011;13247;47.504;7.382;2023-04-21T13:41:37;7.05;;;3.58;;
21816;SDS011;13247;47.504;7.382;2023-04-21T13:44:22;5.18;;;2.90;;
21816;SDS011;13247;47.504;7.382;2023-04-21T13:47:06;6.25;;;3.20;;
21816;SDS011;13247;47.504;7.382;2023-04-21T13:49:51;3.58;;;2.58;;
21816;SDS011;13247;47.504;7.382;2023-04-21T13:52:36;2.72;;;2.10;;
21816;SDS011;13247;47.504;7.382;2023-04-21T13:55:20;2.40;;;2.13;;
21816;SDS011;13247;47.504;7.382;2023-04-21T13:58:05;6.55;;;2.45;;
21816;SDS011;13247;47.504;7.382;2023-04-21T14:00:50;2.53;;;2.17;;
21816;SDS011;13247;47.504;7.382;2023-04-21T14:03:34;2.45;;;2.00;;
21816;SDS011;13247;47.504;7.382;2023-04-21T14:06:18;3.22;;;2.33;;
21816;SDS011;13247;47.504;7.382;2023-04-21T14:09:04;4.90;;;3.25;;
21816;SDS011;13247;47.504;7.382;2023-04-21T14:11:49;4.47;;;2.60;;
21816;SDS011;13247;47.504;7.382;2023-04-21T14:14:33;3.05;;;2.40;;
21816;SDS011;13247;47.504;7.382;2023-04-21T14:17:18;3.63;;;2.63;;
21816;SDS011;13247;47.504;7.382;2023-04-21T14:20:04;5.03;;;3.17;;
21816;SDS011;13247;47.504;7.382;2023-04-21T14:22:49;6.82;;;3.65;;
21816;SDS011;13247;47.504;7.382;2023-04-21T14:25:34;7.07;;;3.67;;
21816;SDS011;13247;47.504;7.382;2023-04-21T14:28:19;4.22;;;2.63;;
21816;SDS011;13247;47.504;7.382;2023-04-21T14:31:03;5.13;;;3.50;;
21816;SDS011;13247;47.504;7.382;2023-04-21T14:33:48;3.58;;;2.70;;
21816;SDS011;13247;47.504;7.382;2023-04-21T14:36:32;8.00;;;3.78;;
21816;SDS011;13247;47.504;7.382;2023-04-21T14:39:17;8.90;;;5.70;;
21816;SDS011;13247;47.504;7.382;2023-04-21T14:42:02;9.27;;;4.93;;
21816;SDS011;13247;47.504;7.382;2023-04-21T14:44:47;5.75;;;4.07;;
21816;SDS011;13247;47.504;7.382;2023-04-21T14:47:31;5.53;;;3.38;;
21816;SDS011;13247;47.504;7.382;2023-04-21T14:50:17;3.45;;;2.88;;
21816;SDS011;13247;47.504;7.382;2023-04-21T14:53:02;4.78;;;3.00;;
21816;SDS011;13247;47.504;7.382;2023-04-21T14:55:47;3.63;;;2.83;;
21816;SDS011;13247;47.504;7.382;2023-04-21T14:58:31;6.13;;;2.95;;
21816;SDS011;13247;47.504;7.382;2023-04-21T15:01:16;5.85;;;3.30;;
21816;SDS011;13247;47.504;7.382;2023-04-21T15:04:01;4.85;;;3.75;;
21816;SDS011;13247;47.504;7.382;2023-04-21T15:06:46;5.40;;;4.18;;
21816;SDS011;13247;47.504;7.382;2023-04-21T15:09:30;7.15;;;4.72;;
21816;SDS011;13247;47.504;7.382;2023-04-21T15:12:15;9.50;;;5.20;;
21816;SDS011;13247;47.504;7.382;2023-04-21T15:14:59;10.02;;;7.00;;
21816;SDS011;13247;47.504;7.382;2023-04-21T15:17:44;10.25;;;7.45;;
21816;SDS011;13247;47.504;7.382;2023-04-21T15:20:29;9.02;;;6.50;;
21816;SDS011;13247;47.504;7.382;2023-04-21T15:23:14;8.55;;;6.25;;
21816;SDS011;13247;47.504;7.382;2023-04-21T15:25:59;10.27;;;6.53;;
21816;SDS011;13247;47.504;7.382;2023-04-21T15:28:43;9.38;;;5.50;;
21816;SDS011;13247;47.504;7.382;2023-04-21T15:31:28;7.22;;;5.30;;
21816;SDS011;13247;47.504;7.382;2023-04-21T15:34:13;9.18;;;5.93;;
21816;SDS011;13247;47.504;7.382;2023-04-21T15:36:58;10.20;;;5.53;;
21816;SDS011;13247;47.504;7.382;2023-04-21T15:39:42;6.70;;;4.53;;
21816;SDS011;13247;47.504;7.382;2023-04-21T15:42:27;5.20;;;3.75;;
21816;SDS011;13247;47.504;7.382;2023-04-21T15:45:12;10.90;;;5.50;;
21816;SDS011;13247;47.504;7.382;2023-04-21T15:47:56;6.97;;;5.40;;
21816;SDS011;13247;47.504;7.382;2023-04-21T15:50:41;6.05;;;4.25;;
21816;SDS011;13247;47.504;7.382;2023-04-21T15:53:27;9.57;;;4.75;;
21816;SDS011;13247;47.504;7.382;2023-04-21T15:56:12;6.43;;;4.78;;
21816;SDS011;13247;47.504;7.382;2023-04-21T15:58:58;12.25;;;4.97;;
21816;SDS011;13247;47.504;7.382;2023-04-21T16:01:42;6.93;;;4.60;;
21816;SDS011;13247;47.504;7.382;2023-04-21T16:04:27;8.35;;;5.53;;
21816;SDS011;13247;47.504;7.382;2023-04-21T16:07:11;8.13;;;5.32;;
21816;SDS011;13247;47.504;7.382;2023-04-21T16:09:56;8.07;;;5.40;;
21816;SDS011;13247;47.504;7.382;2023-04-21T16:12:41;8.60;;;5.22;;
21816;SDS011;13247;47.504;7.382;2023-04-21T16:15:28;8.27;;;5.28;;
21816;SDS011;13247;47.504;7.382;2023-04-21T16:18:12;7.45;;;4.97;;
21816;SDS011;13247;47.504;7.382;2023-04-21T16:20:57;8.65;;;6.45;;
21816;SDS011;13247;47.504;7.382;2023-04-21T16:23:43;10.95;;;7.40;;
21816;SDS011;13247;47.504;7.382;2023-04-21T16:26:28;19.83;;;10.80;;
21816;SDS011;13247;47.504;7.382;2023-04-21T16:29:15;19.00;;;8.57;;
21816;SDS011;13247;47.504;7.382;2023-04-21T16:32:00;12.85;;;5.95;;
21816;SDS011;13247;47.504;7.382;2023-04-21T16:34:44;12.43;;;5.43;;
21816;SDS011;13247;47.504;7.382;2023-04-21T16:37:30;10.02;;;5.68;;
21816;SDS011;13247;47.504;7.382;2023-04-21T16:40:15;11.70;;;5.72;;
21816;SDS011;13247;47.504;7.382;2023-04-21T16:43:00;10.60;;;5.30;;